71TX weather

Public forecast

Using degrees Fahrenheit for public forecast. Weather courtesy of forecast.io.

Closest aviation weather report (METAR) to Grier Airport

Closest report is Boerne Stage Field, 9.1 nm (16.9 km) SSE. Retrieved 2020/08/15 19:35 UTC (0 seconds ago):

K5C1 151935Z AUTO 17003KT 10SM CLR 35/14 A2998 RMK AO1

Closest aviation forecast (TAF) to Grier Airport

Closest forecast is San Antonio International Airport, 24.5 nm (45.4 km) SE. Retrieved 2020/08/15 18:30 UTC (1 hour ago):

TAF KSAT 151727Z 1518/1624 19006KT P6SM FEW250 FM152100 15010KT P6SM FEW250 FM160900 19005KT P6SM SCT015 FM161800 12007KT P6SM FEW060